Flight Track Log - Related Links

Times and Time Zones

All times are in EDT time to prevent confusion due to time zone crossing. See the SWA1707 flight status page for this flight to view local times or setup timezone preferences in your user account.

Time Position Orientation Groundspeed Altitude Reporting Facility
EDT Latitude Longitude Course Direction KTS MPH feet Rate Location/Type
Sun 02:47:55 PM 42.3667 -70.9833 75° East 148 170 900  Level KA90
Sun 02:48:58 PM 42.3833 -70.9000 75° East 199 229 3,300 2,693 Climbing KA90
Sun 02:50:02 PM 42.3908 -70.8125 83° East 266 306 6,600 3,532 Climbing Boston Center
Sun 02:51:02 PM 42.3561 -70.7292 119° Southeast 289 333 10,600 3,800 Climbing Boston Center
Sun 02:52:02 PM 42.2750 -70.7342 183° South 241 277 14,200 3,050 Climbing Boston Center
Sun 02:53:02 PM 42.2161 -70.8367 232° Southwest 243 280 16,700 2,650 Climbing Boston Center
Sun 02:54:02 PM 42.1803 -70.9692 250° West 324 373 19,500 3,000 Climbing Boston Center
Sun 02:55:02 PM 42.1425 -71.0989 249° West 355 409 22,700 1,750 Climbing Boston Center
Sun 02:56:02 PM 42.1064 -71.2397 251° West 384 442 23,000 150 Climbing Boston Center
Sun 02:57:02 PM 42.0661 -71.3747 248° West 390 449 23,000 100 Level Boston Center
Sun 02:58:02 PM 42.0297 -71.5094 250° West 390 449 23,200 1,300 Climbing Boston Center
Sun 02:59:02 PM 41.9869 -71.6442 247° West 390 449 25,600 2,250 Climbing Boston Center
Sun 03:00:02 PM 41.9464 -71.7925 250° West 410 472 27,700 1,550 Climbing Boston Center
Sun 03:01:02 PM 41.9386 -71.9208 265° West 415 478 28,700 1,500 Climbing Boston Center
Sun 03:02:02 PM 41.9456 -72.1275 273° West 441 507 30,700 2,000 Climbing Boston Center
Sun 03:03:02 PM 41.9481 -72.3006 271° West 455 524 32,700 1,950 Climbing Boston Center
Sun 03:04:02 PM 41.9294 -72.4736 262° West 461 531 34,600 1,600 Climbing Boston Center
Sun 03:05:02 PM 41.8897 -72.6047 248° West 467 537 35,900 1,450 Climbing Boston Center
Sun 03:06:02 PM 41.8350 -72.7800 247° West 467 537 37,500 1,864 Climbing Boston Center
Sun 03:07:14 PM 41.7675 -72.9856 246° West 477 549 40,000 1,136 Climbing Boston Center
Sun 03:08:14 PM 41.7167 -73.1408 246° West 465 535 40,000  Level Boston Center
Sun 03:10:18 PM 41.5919 -73.4231 239° Southwest 449 517 40,000  Level New York Center
Sun 03:11:18 PM 41.5122 -73.5472 229° Southwest 444 511 40,000  Level New York Center
Sun 03:12:19 PM 41.4300 -73.6767 230° Southwest 450 518 40,000  Level New York Center
Sun 03:13:19 PM 41.3456 -73.8028 228° Southwest 455 524 40,000  Level New York Center
Sun 03:14:17 PM 41.2631 -73.9258 228° Southwest 455 524 40,000  Level New York Center
Sun 03:15:18 PM 41.1786 -74.0489 228° Southwest 455 524 40,000  Level New York Center
Sun 03:16:19 PM 41.1061 -74.1800 234° Southwest 455 524 40,000  Level New York Center
Sun 03:17:19 PM 41.0442 -74.3036 236° Southwest 455 524 40,000  Level New York Center
Sun 03:18:19 PM 40.9775 -74.4403 237° Southwest 450 518 40,000  Level New York Center
Sun 03:19:17 PM 40.9147 -74.5797 239° Southwest 450 518 40,000  Level New York Center
Sun 03:20:18 PM 40.8500 -74.7131 237° Southwest 443 510 40,000  Level New York Center
Sun 03:21:18 PM 40.7847 -74.8547 239° Southwest 443 510 40,000  Level New York Center
Sun 03:23:19 PM 40.6603 -75.1289 239° Southwest 443 510 40,000  Level New York Center
Sun 03:24:19 PM 40.5969 -75.2669 239° Southwest 438 504 40,000  Level New York Center
Sun 03:25:20 PM 40.5350 -75.4078 240° Southwest 443 510 40,000  Level New York Center
Sun 03:26:18 PM 40.4692 -75.5453 238° Southwest 449 517 40,000  Level New York Center
Sun 03:27:19 PM 40.4069 -75.6881 240° Southwest 449 517 40,000  Level New York Center
Sun 03:29:17 PM 40.2653 -75.9800 238° Southwest 460 529 40,000  Level New York Center
Sun 03:30:18 PM 40.2008 -76.1192 239° Southwest 455 524 40,000  Level New York Center
Sun 03:31:19 PM 40.1431 -76.2397 238° Southwest 449 517 40,000  Level New York Center
Sun 03:32:17 PM 40.0783 -76.3758 238° Southwest 449 517 40,000  Level New York Center
Sun 03:34:15 PM 39.9592 -76.6417 240° Southwest 446 513 40,000  Level Washington Center
Sun 03:35:15 PM 39.8869 -76.7867 237° Southwest 446 513 40,000  Level Washington Center
Sun 03:36:16 PM 39.8250 -76.9208 239° Southwest 446 513 40,000  Level Washington Center
Sun 03:37:13 PM 39.7611 -77.0544 238° Southwest 446 513 40,000  Level Washington Center
Sun 03:38:14 PM 39.7050 -77.1936 242° Southwest 446 513 40,000  Level Washington Center
Sun 03:39:15 PM 39.6656 -77.3383 251° West 438 504 40,000  Level Washington Center
Sun 03:40:13 PM 39.6281 -77.4856 252° West 438 504 40,000  Level Washington Center
Sun 03:41:14 PM 39.5881 -77.6328 251° West 433 498 40,000  Level Washington Center
Sun 03:42:14 PM 39.5503 -77.7742 251° West 427 491 40,000  Level Washington Center
Sun 03:43:15 PM 39.5078 -77.9183 249° West 427 491 40,000  Level Washington Center
Sun 03:44:15 PM 39.4697 -78.0567 250° West 427 491 40,000  Level Washington Center
Sun 03:45:13 PM 39.4292 -78.1978 250° West 427 491 40,000  Level Washington Center
Sun 03:46:13 PM 39.3950 -78.3256 251° West 427 491 40,000  Level Washington Center
Sun 03:47:14 PM 39.3564 -78.4636 250° West 422 486 40,000  Level Washington Center
Sun 03:48:14 PM 39.3133 -78.6042 248° West 427 491 40,000  Level Washington Center
Sun 03:49:14 PM 39.2742 -78.7500 251° West 427 491 40,000  Level Washington Center
Sun 03:50:16 PM 39.2331 -78.8928 250° West 427 491 40,000  Level Washington Center
Sun 03:51:13 PM 39.1914 -79.0356 249° West 427 491 40,000  Level Washington Center
Sun 03:52:14 PM 39.1519 -79.1756 250° West 427 491 40,000  Level Washington Center
Sun 03:53:14 PM 39.1122 -79.3156 250° West 427 491 40,000  Level Washington Center
Sun 03:54:15 PM 39.0703 -79.4550 249° West 427 491 40,000  Level Washington Center
Sun 03:56:14 PM 38.9811 -79.7547 249° West 432 497 40,000  Level Washington Center
Sun 03:57:14 PM 38.9408 -79.8914 249° West 426 490 40,000  Level Washington Center
Sun 03:58:15 PM 38.9008 -80.0169 248° West 426 490 40,000  Level Washington Center
Sun 03:59:34 PM 38.8386 -80.2142 248° West 424 488 40,000  Level Indianapolis Center
Sun 04:00:36 PM 38.7942 -80.3542 248° West 426 490 40,000  Level Indianapolis Center
Sun 04:01:38 PM 38.7514 -80.4961 249° West 425 489 40,000  Level Indianapolis Center
Sun 04:02:40 PM 38.7081 -80.6392 249° West 429 494 40,000  Level Indianapolis Center
Sun 04:03:42 PM 38.6636 -80.7819 248° West 431 496 40,000  Level Indianapolis Center
Sun 04:04:44 PM 38.6189 -80.9228 248° West 428 493 40,000  Level Indianapolis Center
Sun 04:05:46 PM 38.5650 -81.0933 248° West 429 494 40,000  Level Indianapolis Center
Sun 04:06:48 PM 38.5208 -81.2336 248° West 423 487 40,000  Level Indianapolis Center
Sun 04:07:49 PM 38.4761 -81.3731 248° West 420 483 40,000  Level Indianapolis Center
Sun 04:08:51 PM 38.4325 -81.5122 248° West 417 480 40,000  Level Indianapolis Center
Sun 04:09:53 PM 38.3892 -81.6503 248° West 415 478 40,000  Level Indianapolis Center
Sun 04:10:55 PM 38.3447 -81.7867 247° West 412 474 40,000  Level Indianapolis Center
Sun 04:11:57 PM 38.3064 -81.9244 251° West 411 473 40,000  Level Indianapolis Center
Sun 04:12:59 PM 38.2667 -82.0633 250° West 416 479 40,000  Level Indianapolis Center
Sun 04:14:01 PM 38.2292 -82.2000 251° West 411 473 40,000  Level Indianapolis Center
Sun 04:15:03 PM 38.1903 -82.3369 250° West 412 474 40,000  Level Indianapolis Center
Sun 04:16:05 PM 38.1428 -82.5033 250° West 411 473 40,000  Level Indianapolis Center
Sun 04:17:07 PM 38.1044 -82.6386 250° West 409 471 40,000  Level Indianapolis Center
Sun 04:18:09 PM 38.0639 -82.7750 249° West 413 475 40,000  Level Indianapolis Center
Sun 04:19:11 PM 38.0242 -82.9144 250° West 421 484 40,000  Level Indianapolis Center
Sun 04:20:13 PM 37.9847 -83.0511 250° West 415 478 40,000 -387 Level Indianapolis Center
Sun 04:21:15 PM 37.9369 -83.2133 250° West 420 483 39,200 -871 Descending Indianapolis Center
Sun 04:22:17 PM 37.8950 -83.3511 249° West 419 482 38,200 -714 Descending Indianapolis Center
Sun 04:24:20 PM 37.8114 -83.6322 249° West 427 491 37,000 -551 Descending Indianapolis Center
Sun 04:25:22 PM 37.7697 -83.7733 250° West 429 494 36,500 -484 Descending Indianapolis Center
Sun 04:26:24 PM 37.7192 -83.9436 249° West 441 507 36,000 -290 Descending Indianapolis Center
Sun 04:27:26 PM 37.6622 -84.0794 242° Southwest 440 506 35,900 -581 Descending Indianapolis Center
Sun 04:28:28 PM 37.5867 -84.1881 229° Southwest 415 478 34,800 -919 Descending Indianapolis Center
Sun 04:29:30 PM 37.5128 -84.2994 230° Southwest 416 479 34,000 -387 Descending Indianapolis Center
Sun 04:30:32 PM 37.4364 -84.4106 229° Southwest 417 480 34,000  Level Indianapolis Center
Sun 04:31:34 PM 37.3597 -84.5233 229° Southwest 423 487 34,000 -581 Level Indianapolis Center
Sun 04:32:36 PM 37.2708 -84.6528 229° Southwest 423 487 32,800 -1,016 Descending Indianapolis Center
Sun 04:33:38 PM 37.1933 -84.7658 229° Southwest 427 491 31,900 -919 Descending Indianapolis Center
Sun 04:34:40 PM 37.1164 -84.8775 229° Southwest 425 489 30,900 -1,016 Descending Indianapolis Center
Sun 04:35:42 PM 37.0317 -84.9997 229° Southwest 422 486 29,800 -1,613 Descending Indianapolis Center
Sun 04:37:20 PM 36.9050 -85.1783 228° Southwest 428 493 26,600 -1,984 Descending Memphis Center
Sun 04:37:46 PM 36.8817 -85.2150 232° Southwest 411 473 25,700 -1,977 Descending Indianapolis Center
Sun 04:38:48 PM 36.8114 -85.3164 229° Southwest 395 455 23,700 -2,043 Descending Indianapolis Center
Sun 04:39:20 PM 36.7633 -85.3817 227° Southwest 405 466 22,500 -1,109 Descending Memphis Center
Sun 04:40:20 PM 36.7092 -85.4911 238° Southwest 385 443 22,000 -250 Descending Memphis Center
Sun 04:41:20 PM 36.6553 -85.6006 238° Southwest 380 437 22,000 -900 Level Memphis Center
Sun 04:42:20 PM 36.6031 -85.7069 239° Southwest 380 437 20,200 -1,800 Descending Memphis Center
Sun 04:43:20 PM 36.5569 -85.8131 242° Southwest 370 426 18,400 -1,900 Descending Memphis Center
Sun 04:44:20 PM 36.5103 -85.9111 239° Southwest 347 399 16,400 -1,900 Descending Memphis Center
Sun 04:45:20 PM 36.4619 -86.0144 240° Southwest 341 392 14,600 -1,800 Descending Memphis Center
Sun 04:46:20 PM 36.4133 -86.1125 238° Southwest 341 392 12,800 -1,600 Descending Memphis Center
Sun 04:47:20 PM 36.3742 -86.1944 239° Southwest 328 377 11,400 -1,350 Descending Memphis Center
Sun 04:48:20 PM 36.3314 -86.2842 239° Southwest 322 371 10,100 -1,250 Descending Memphis Center
Sun 04:49:20 PM 36.2903 -86.3686 239° Southwest 304 350 8,900 -1,300 Descending Memphis Center
Sun 04:50:20 PM 36.2511 -86.4478 238° Southwest 286 329 7,500 -1,300 Descending Memphis Center
Sun 04:51:20 PM 36.2017 -86.5297 233° Southwest 279 321 6,300 -1,050 Descending Memphis Center
Sun 04:52:20 PM 36.1356 -86.5508 194° South 249 287 5,400 -700 Descending Memphis Center
Sun 04:53:20 PM 36.0739 -86.5769 199° South 243 280 4,900 -750 Descending Memphis Center
Sun 04:54:20 PM 36.0161 -86.6000 198° South 232 267 3,900 -850 Descending Memphis Center
Sun 04:55:20 PM 35.9819 -86.6453 227° Southwest 188 216 3,200 -850 Descending Memphis Center
Sun 04:56:20 PM 36.0147 -86.6950 309° West 145 167 2,200 -750 Descending Memphis Center
Sun 04:57:20 PM 36.0567 -86.6958 359° North 144 166 1,700 -500 Descending Memphis Center
Sun 05:00:00 PM 36.1167 -86.6667 315° West  Level FlightAware Approximate
Sun 05:07:00 PM 36.1245 -86.6782 315° West  Level Estimated
Sun 05:08:00 PM 36.1245 -86.6782 315° West  Level Estimated
Sun 05:09:00 PM 36.1245 -86.6782 315° West  Level Estimated
Sun 05:10:00 PM 36.1245 -86.6782 315° West  Level Estimated
Sun 05:11:00 PM 36.1245 -86.6782 315° West  Level Estimated
Sun 05:12:00 PM 36.1245 -86.6782 315° West  Level Estimated
Sun 05:13:00 PM 36.1245 -86.6782 315° West  Level Estimated
Sun 05:14:00 PM 36.1245 -86.6782 315° West  Level Estimated

Login

Don't have an account? Register now (free) for customized features, flight alerts, and more!